sensor_id;sensor_type;location;lat;lon;timestamp;P1;durP1;ratioP1;P2;durP2;ratioP2
25111;SDS011;13092;51.996;4.458;2022-09-23T00:01:28;35.03;;;32.63;;
25111;SDS011;13092;51.996;4.458;2022-09-23T00:03:58;33.83;;;31.63;;
25111;SDS011;13092;51.996;4.458;2022-09-23T00:06:26;36.45;;;33.88;;
25111;SDS011;13092;51.996;4.458;2022-09-23T00:08:55;33.47;;;31.10;;
25111;SDS011;13092;51.996;4.458;2022-09-23T00:11:24;35.35;;;32.97;;
25111;SDS011;13092;51.996;4.458;2022-09-23T00:13:54;32.30;;;30.13;;
25111;SDS011;13092;51.996;4.458;2022-09-23T00:16:27;34.60;;;32.33;;
25111;SDS011;13092;51.996;4.458;2022-09-23T00:18:58;37.25;;;34.67;;
25111;SDS011;13092;51.996;4.458;2022-09-23T00:21:26;34.55;;;32.25;;
25111;SDS011;13092;51.996;4.458;2022-09-23T00:23:54;35.20;;;32.90;;
25111;SDS011;13092;51.996;4.458;2022-09-23T00:26:22;36.47;;;33.97;;
25111;SDS011;13092;51.996;4.458;2022-09-23T00:28:51;36.10;;;33.58;;
25111;SDS011;13092;51.996;4.458;2022-09-23T00:31:21;35.63;;;33.30;;
25111;SDS011;13092;51.996;4.458;2022-09-23T00:33:56;37.55;;;34.95;;
25111;SDS011;13092;51.996;4.458;2022-09-23T00:36:26;38.42;;;35.80;;
25111;SDS011;13092;51.996;4.458;2022-09-23T00:38:57;38.00;;;35.50;;
25111;SDS011;13092;51.996;4.458;2022-09-23T00:41:26;38.95;;;36.25;;
25111;SDS011;13092;51.996;4.458;2022-09-23T00:43:55;37.15;;;34.50;;
25111;SDS011;13092;51.996;4.458;2022-09-23T00:46:25;37.55;;;34.88;;
25111;SDS011;13092;51.996;4.458;2022-09-23T00:49:01;41.67;;;38.55;;
25111;SDS011;13092;51.996;4.458;2022-09-23T00:51:35;38.40;;;35.80;;
25111;SDS011;13092;51.996;4.458;2022-09-23T00:54:06;34.90;;;32.50;;
25111;SDS011;13092;51.996;4.458;2022-09-23T00:56:35;34.33;;;31.83;;
25111;SDS011;13092;51.996;4.458;2022-09-23T00:59:06;40.05;;;37.30;;
25111;SDS011;13092;51.996;4.458;2022-09-23T01:01:35;37.50;;;34.92;;
25111;SDS011;13092;51.996;4.458;2022-09-23T01:04:06;36.65;;;33.97;;
25111;SDS011;13092;51.996;4.458;2022-09-23T01:06:35;34.90;;;32.60;;
25111;SDS011;13092;51.996;4.458;2022-09-23T01:09:03;36.45;;;34.10;;
25111;SDS011;13092;51.996;4.458;2022-09-23T01:11:36;38.15;;;35.45;;
25111;SDS011;13092;51.996;4.458;2022-09-23T01:14:18;38.00;;;35.50;;
25111;SDS011;13092;51.996;4.458;2022-09-23T01:17:02;33.95;;;31.60;;
25111;SDS011;13092;51.996;4.458;2022-09-23T01:22:37;35.00;;;32.53;;
25111;SDS011;13092;51.996;4.458;2022-09-23T01:25:20;36.28;;;33.75;;
25111;SDS011;13092;51.996;4.458;2022-09-23T01:28:05;35.38;;;33.08;;
25111;SDS011;13092;51.996;4.458;2022-09-23T01:31:00;37.28;;;34.67;;
25111;SDS011;13092;51.996;4.458;2022-09-23T01:33:38;37.67;;;34.95;;
25111;SDS011;13092;51.996;4.458;2022-09-23T01:36:13;39.40;;;36.45;;
25111;SDS011;13092;51.996;4.458;2022-09-23T01:38:51;34.42;;;32.05;;
25111;SDS011;13092;51.996;4.458;2022-09-23T01:41:30;32.25;;;30.10;;
25111;SDS011;13092;51.996;4.458;2022-09-23T01:44:17;31.58;;;29.38;;
25111;SDS011;13092;51.996;4.458;2022-09-23T01:46:50;34.05;;;31.63;;
25111;SDS011;13092;51.996;4.458;2022-09-23T01:49:25;35.38;;;32.78;;
25111;SDS011;13092;51.996;4.458;2022-09-23T01:52:00;37.72;;;35.20;;
25111;SDS011;13092;51.996;4.458;2022-09-23T01:54:36;37.20;;;34.60;;
25111;SDS011;13092;51.996;4.458;2022-09-23T01:57:11;38.08;;;35.28;;
25111;SDS011;13092;51.996;4.458;2022-09-23T01:59:45;35.45;;;32.97;;
25111;SDS011;13092;51.996;4.458;2022-09-23T02:02:19;34.03;;;31.60;;
25111;SDS011;13092;51.996;4.458;2022-09-23T02:04:54;33.15;;;31.02;;
25111;SDS011;13092;51.996;4.458;2022-09-23T02:07:29;33.05;;;30.77;;
25111;SDS011;13092;51.996;4.458;2022-09-23T02:10:03;35.63;;;33.13;;
25111;SDS011;13092;51.996;4.458;2022-09-23T02:12:37;36.25;;;33.85;;
25111;SDS011;13092;51.996;4.458;2022-09-23T02:15:09;38.03;;;35.42;;
25111;SDS011;13092;51.996;4.458;2022-09-23T02:17:44;38.75;;;35.95;;
25111;SDS011;13092;51.996;4.458;2022-09-23T02:20:17;34.75;;;32.35;;
25111;SDS011;13092;51.996;4.458;2022-09-23T02:22:50;33.75;;;31.35;;
25111;SDS011;13092;51.996;4.458;2022-09-23T02:25:26;32.17;;;29.83;;
25111;SDS011;13092;51.996;4.458;2022-09-23T02:28:00;31.38;;;29.05;;
25111;SDS011;13092;51.996;4.458;2022-09-23T02:30:36;31.83;;;29.63;;
25111;SDS011;13092;51.996;4.458;2022-09-23T02:33:14;34.50;;;32.00;;
25111;SDS011;13092;51.996;4.458;2022-09-23T02:35:50;36.45;;;33.95;;
25111;SDS011;13092;51.996;4.458;2022-09-23T02:38:23;36.97;;;34.42;;
25111;SDS011;13092;51.996;4.458;2022-09-23T02:41:02;37.80;;;34.80;;
25111;SDS011;13092;51.996;4.458;2022-09-23T02:43:35;36.95;;;34.45;;
25111;SDS011;13092;51.996;4.458;2022-09-23T02:46:09;38.75;;;36.08;;
25111;SDS011;13092;51.996;4.458;2022-09-23T02:48:39;36.78;;;34.33;;
25111;SDS011;13092;51.996;4.458;2022-09-23T02:51:11;38.17;;;35.55;;
25111;SDS011;13092;51.996;4.458;2022-09-23T02:53:40;34.25;;;31.85;;
25111;SDS011;13092;51.996;4.458;2022-09-23T02:56:14;36.20;;;33.70;;
25111;SDS011;13092;51.996;4.458;2022-09-23T02:58:45;35.92;;;33.42;;
25111;SDS011;13092;51.996;4.458;2022-09-23T03:01:17;34.03;;;31.50;;
25111;SDS011;13092;51.996;4.458;2022-09-23T03:04:02;33.55;;;30.67;;
25111;SDS011;13092;51.996;4.458;2022-09-23T03:06:36;32.35;;;29.95;;
25111;SDS011;13092;51.996;4.458;2022-09-23T03:09:15;27.45;;;25.45;;
25111;SDS011;13092;51.996;4.458;2022-09-23T03:11:49;30.65;;;28.45;;
25111;SDS011;13092;51.996;4.458;2022-09-23T03:14:27;29.88;;;27.58;;
25111;SDS011;13092;51.996;4.458;2022-09-23T03:17:03;26.88;;;24.67;;
25111;SDS011;13092;51.996;4.458;2022-09-23T03:19:40;24.38;;;22.30;;
25111;SDS011;13092;51.996;4.458;2022-09-23T03:22:14;27.55;;;25.42;;
25111;SDS011;13092;51.996;4.458;2022-09-23T03:24:46;26.25;;;24.17;;
25111;SDS011;13092;51.996;4.458;2022-09-23T03:27:21;26.77;;;24.67;;
25111;SDS011;13092;51.996;4.458;2022-09-23T03:29:53;26.27;;;24.08;;
25111;SDS011;13092;51.996;4.458;2022-09-23T03:32:25;26.45;;;24.45;;
25111;SDS011;13092;51.996;4.458;2022-09-23T03:34:58;30.23;;;28.05;;
25111;SDS011;13092;51.996;4.458;2022-09-23T03:37:28;32.00;;;29.60;;
25111;SDS011;13092;51.996;4.458;2022-09-23T03:40:00;29.83;;;27.73;;
25111;SDS011;13092;51.996;4.458;2022-09-23T03:42:33;27.52;;;25.42;;
25111;SDS011;13092;51.996;4.458;2022-09-23T03:45:04;27.92;;;25.73;;
25111;SDS011;13092;51.996;4.458;2022-09-23T03:47:36;23.83;;;22.02;;
25111;SDS011;13092;51.996;4.458;2022-09-23T03:50:06;24.60;;;22.45;;
25111;SDS011;13092;51.996;4.458;2022-09-23T03:52:35;24.60;;;22.70;;
25111;SDS011;13092;51.996;4.458;2022-09-23T03:55:05;22.92;;;21.02;;
25111;SDS011;13092;51.996;4.458;2022-09-23T03:57:34;22.30;;;20.60;;
25111;SDS011;13092;51.996;4.458;2022-09-23T04:00:03;21.00;;;19.30;;
25111;SDS011;13092;51.996;4.458;2022-09-23T04:02:32;22.80;;;20.88;;
25111;SDS011;13092;51.996;4.458;2022-09-23T04:05:01;23.33;;;21.42;;
25111;SDS011;13092;51.996;4.458;2022-09-23T04:07:30;26.52;;;24.45;;
25111;SDS011;13092;51.996;4.458;2022-09-23T04:09:59;26.98;;;24.77;;
25111;SDS011;13092;51.996;4.458;2022-09-23T04:12:27;23.33;;;21.52;;
25111;SDS011;13092;51.996;4.458;2022-09-23T04:14:55;22.75;;;20.85;;
25111;SDS011;13092;51.996;4.458;2022-09-23T04:17:24;23.60;;;21.67;;
25111;SDS011;13092;51.996;4.458;2022-09-23T04:19:52;23.60;;;21.63;;
25111;SDS011;13092;51.996;4.458;2022-09-23T04:22:20;23.48;;;21.63;;
25111;SDS011;13092;51.996;4.458;2022-09-23T04:24:50;26.20;;;24.15;;
25111;SDS011;13092;51.996;4.458;2022-09-23T04:27:19;24.70;;;22.80;;
25111;SDS011;13092;51.996;4.458;2022-09-23T04:29:47;23.90;;;21.85;;
25111;SDS011;13092;51.996;4.458;2022-09-23T04:32:15;22.15;;;20.30;;
25111;SDS011;13092;51.996;4.458;2022-09-23T04:34:43;22.83;;;20.65;;
25111;SDS011;13092;51.996;4.458;2022-09-23T04:37:11;22.88;;;20.88;;
25111;SDS011;13092;51.996;4.458;2022-09-23T04:39:40;24.77;;;22.88;;
25111;SDS011;13092;51.996;4.458;2022-09-23T04:42:11;23.80;;;21.83;;
25111;SDS011;13092;51.996;4.458;2022-09-23T04:44:40;24.25;;;22.30;;
25111;SDS011;13092;51.996;4.458;2022-09-23T04:47:08;24.10;;;22.05;;
25111;SDS011;13092;51.996;4.458;2022-09-23T04:49:39;22.80;;;20.85;;
25111;SDS011;13092;51.996;4.458;2022-09-23T04:52:07;27.13;;;24.92;;
25111;SDS011;13092;51.996;4.458;2022-09-23T04:54:36;24.27;;;22.10;;
25111;SDS011;13092;51.996;4.458;2022-09-23T04:57:04;24.63;;;22.27;;
25111;SDS011;13092;51.996;4.458;2022-09-23T04:59:34;23.42;;;21.42;;
25111;SDS011;13092;51.996;4.458;2022-09-23T05:02:04;23.23;;;21.23;;
25111;SDS011;13092;51.996;4.458;2022-09-23T05:04:32;27.10;;;24.63;;
25111;SDS011;13092;51.996;4.458;2022-09-23T05:07:02;25.27;;;23.17;;
25111;SDS011;13092;51.996;4.458;2022-09-23T05:09:30;24.10;;;22.00;;
25111;SDS011;13092;51.996;4.458;2022-09-23T05:11:58;23.75;;;21.73;;
25111;SDS011;13092;51.996;4.458;2022-09-23T05:14:26;24.33;;;22.13;;
25111;SDS011;13092;51.996;4.458;2022-09-23T05:16:55;26.15;;;23.95;;
25111;SDS011;13092;51.996;4.458;2022-09-23T05:19:24;25.30;;;23.13;;
25111;SDS011;13092;51.996;4.458;2022-09-23T05:21:52;27.73;;;25.25;;
25111;SDS011;13092;51.996;4.458;2022-09-23T05:24:20;27.48;;;25.13;;
25111;SDS011;13092;51.996;4.458;2022-09-23T05:26:49;26.92;;;24.83;;
25111;SDS011;13092;51.996;4.458;2022-09-23T05:29:19;26.50;;;24.02;;
25111;SDS011;13092;51.996;4.458;2022-09-23T05:31:47;25.42;;;23.30;;
25111;SDS011;13092;51.996;4.458;2022-09-23T05:34:18;26.23;;;23.83;;
25111;SDS011;13092;51.996;4.458;2022-09-23T05:36:46;25.40;;;23.15;;
25111;SDS011;13092;51.996;4.458;2022-09-23T05:39:15;28.90;;;26.55;;
25111;SDS011;13092;51.996;4.458;2022-09-23T05:41:43;25.90;;;23.70;;
25111;SDS011;13092;51.996;4.458;2022-09-23T05:44:11;30.58;;;27.88;;
25111;SDS011;13092;51.996;4.458;2022-09-23T05:46:39;28.38;;;26.02;;
25111;SDS011;13092;51.996;4.458;2022-09-23T05:49:08;30.30;;;27.70;;
25111;SDS011;13092;51.996;4.458;2022-09-23T05:51:37;28.45;;;25.77;;
25111;SDS011;13092;51.996;4.458;2022-09-23T05:54:06;27.20;;;25.15;;
25111;SDS011;13092;51.996;4.458;2022-09-23T05:56:34;27.10;;;24.90;;
25111;SDS011;13092;51.996;4.458;2022-09-23T05:59:03;28.65;;;25.90;;
25111;SDS011;13092;51.996;4.458;2022-09-23T06:01:33;30.55;;;28.05;;
25111;SDS011;13092;51.996;4.458;2022-09-23T06:04:04;28.35;;;26.23;;
25111;SDS011;13092;51.996;4.458;2022-09-23T06:06:35;27.73;;;25.35;;
25111;SDS011;13092;51.996;4.458;2022-09-23T06:09:08;26.83;;;24.67;;
25111;SDS011;13092;51.996;4.458;2022-09-23T06:11:38;30.05;;;27.67;;
25111;SDS011;13092;51.996;4.458;2022-09-23T06:14:08;27.08;;;24.90;;
25111;SDS011;13092;51.996;4.458;2022-09-23T06:16:39;28.50;;;25.90;;
25111;SDS011;13092;51.996;4.458;2022-09-23T06:19:08;27.88;;;25.52;;
25111;SDS011;13092;51.996;4.458;2022-09-23T06:21:37;28.65;;;26.20;;
25111;SDS011;13092;51.996;4.458;2022-09-23T06:24:07;27.90;;;25.63;;
25111;SDS011;13092;51.996;4.458;2022-09-23T06:26:43;27.88;;;25.38;;
25111;SDS011;13092;51.996;4.458;2022-09-23T06:29:11;28.10;;;25.88;;
25111;SDS011;13092;51.996;4.458;2022-09-23T06:31:39;27.60;;;25.20;;
25111;SDS011;13092;51.996;4.458;2022-09-23T06:34:09;26.48;;;24.05;;
25111;SDS011;13092;51.996;4.458;2022-09-23T06:36:39;27.50;;;25.20;;
25111;SDS011;13092;51.996;4.458;2022-09-23T06:39:12;25.98;;;23.92;;
25111;SDS011;13092;51.996;4.458;2022-09-23T06:41:41;26.15;;;23.63;;
25111;SDS011;13092;51.996;4.458;2022-09-23T06:44:10;26.92;;;24.55;;
25111;SDS011;13092;51.996;4.458;2022-09-23T06:46:39;23.42;;;21.42;;
25111;SDS011;13092;51.996;4.458;2022-09-23T06:49:07;24.65;;;22.35;;
25111;SDS011;13092;51.996;4.458;2022-09-23T06:51:38;29.20;;;24.25;;
25111;SDS011;13092;51.996;4.458;2022-09-23T06:54:07;26.10;;;23.33;;
25111;SDS011;13092;51.996;4.458;2022-09-23T06:56:38;25.58;;;23.58;;
25111;SDS011;13092;51.996;4.458;2022-09-23T06:59:08;25.23;;;22.88;;
25111;SDS011;13092;51.996;4.458;2022-09-23T07:01:38;25.60;;;23.30;;
25111;SDS011;13092;51.996;4.458;2022-09-23T07:04:07;25.35;;;22.92;;
25111;SDS011;13092;51.996;4.458;2022-09-23T07:06:35;25.83;;;23.45;;
25111;SDS011;13092;51.996;4.458;2022-09-23T07:09:04;24.73;;;22.63;;
25111;SDS011;13092;51.996;4.458;2022-09-23T07:11:40;25.88;;;23.40;;
25111;SDS011;13092;51.996;4.458;2022-09-23T07:14:08;25.17;;;23.05;;
25111;SDS011;13092;51.996;4.458;2022-09-23T07:16:36;25.15;;;22.77;;
25111;SDS011;13092;51.996;4.458;2022-09-23T07:19:07;24.75;;;22.58;;
25111;SDS011;13092;51.996;4.458;2022-09-23T07:21:36;26.05;;;23.48;;
25111;SDS011;13092;51.996;4.458;2022-09-23T07:24:04;24.40;;;22.05;;
25111;SDS011;13092;51.996;4.458;2022-09-23T07:26:33;26.25;;;23.15;;
25111;SDS011;13092;51.996;4.458;2022-09-23T07:29:02;25.48;;;22.85;;
25111;SDS011;13092;51.996;4.458;2022-09-23T07:31:34;24.60;;;22.27;;
25111;SDS011;13092;51.996;4.458;2022-09-23T07:34:06;26.60;;;24.10;;
25111;SDS011;13092;51.996;4.458;2022-09-23T07:36:37;26.10;;;23.70;;
25111;SDS011;13092;51.996;4.458;2022-09-23T07:39:07;25.10;;;22.63;;
25111;SDS011;13092;51.996;4.458;2022-09-23T07:41:37;24.42;;;22.20;;
25111;SDS011;13092;51.996;4.458;2022-09-23T07:44:08;25.65;;;23.05;;
25111;SDS011;13092;51.996;4.458;2022-09-23T07:46:37;26.75;;;24.15;;
25111;SDS011;13092;51.996;4.458;2022-09-23T07:49:05;23.80;;;21.75;;
25111;SDS011;13092;51.996;4.458;2022-09-23T07:51:36;23.15;;;20.90;;
25111;SDS011;13092;51.996;4.458;2022-09-23T07:54:06;21.02;;;19.05;;
25111;SDS011;13092;51.996;4.458;2022-09-23T07:56:39;23.70;;;21.65;;
25111;SDS011;13092;51.996;4.458;2022-09-23T07:59:10;23.17;;;21.27;;
25111;SDS011;13092;51.996;4.458;2022-09-23T08:01:43;23.42;;;21.20;;
25111;SDS011;13092;51.996;4.458;2022-09-23T08:04:15;21.50;;;19.45;;
25111;SDS011;13092;51.996;4.458;2022-09-23T08:06:45;21.83;;;19.83;;
25111;SDS011;13092;51.996;4.458;2022-09-23T08:09:18;19.52;;;17.83;;
25111;SDS011;13092;51.996;4.458;2022-09-23T08:11:51;19.83;;;17.73;;
25111;SDS011;13092;51.996;4.458;2022-09-23T08:14:22;20.70;;;18.73;;
25111;SDS011;13092;51.996;4.458;2022-09-23T08:16:50;18.92;;;17.10;;
25111;SDS011;13092;51.996;4.458;2022-09-23T08:19:19;21.33;;;19.33;;
25111;SDS011;13092;51.996;4.458;2022-09-23T08:21:48;19.50;;;17.75;;
25111;SDS011;13092;51.996;4.458;2022-09-23T08:24:18;21.85;;;19.40;;
25111;SDS011;13092;51.996;4.458;2022-09-23T08:26:50;23.58;;;21.23;;
25111;SDS011;13092;51.996;4.458;2022-09-23T08:29:26;19.95;;;17.92;;
25111;SDS011;13092;51.996;4.458;2022-09-23T08:31:55;20.38;;;17.80;;
25111;SDS011;13092;51.996;4.458;2022-09-23T08:34:25;19.95;;;18.08;;
25111;SDS011;13092;51.996;4.458;2022-09-23T08:36:54;20.90;;;18.92;;
25111;SDS011;13092;51.996;4.458;2022-09-23T08:39:23;19.98;;;15.00;;
25111;SDS011;13092;51.996;4.458;2022-09-23T08:41:56;15.57;;;14.07;;
25111;SDS011;13092;51.996;4.458;2022-09-23T08:44:41;24.38;;;15.10;;
25111;SDS011;13092;51.996;4.458;2022-09-23T08:47:15;16.83;;;14.13;;
25111;SDS011;13092;51.996;4.458;2022-09-23T08:49:51;15.43;;;12.55;;
25111;SDS011;13092;51.996;4.458;2022-09-23T08:52:27;15.82;;;13.73;;
25111;SDS011;13092;51.996;4.458;2022-09-23T08:55:00;21.75;;;13.40;;
25111;SDS011;13092;51.996;4.458;2022-09-23T08:57:32;18.00;;;13.35;;
25111;SDS011;13092;51.996;4.458;2022-09-23T09:00:14;16.70;;;13.23;;
25111;SDS011;13092;51.996;4.458;2022-09-23T09:02:48;16.13;;;13.27;;
25111;SDS011;13092;51.996;4.458;2022-09-23T09:05:21;15.63;;;13.15;;
25111;SDS011;13092;51.996;4.458;2022-09-23T09:07:53;19.45;;;13.98;;
25111;SDS011;13092;51.996;4.458;2022-09-23T09:10:25;16.55;;;12.57;;
25111;SDS011;13092;51.996;4.458;2022-09-23T09:13:02;19.42;;;13.80;;
25111;SDS011;13092;51.996;4.458;2022-09-23T09:15:34;17.15;;;13.68;;
25111;SDS011;13092;51.996;4.458;2022-09-23T09:18:10;15.40;;;12.90;;
25111;SDS011;13092;51.996;4.458;2022-09-23T09:20:47;13.98;;;12.60;;
25111;SDS011;13092;51.996;4.458;2022-09-23T09:23:26;14.68;;;13.10;;
25111;SDS011;13092;51.996;4.458;2022-09-23T09:26:00;19.10;;;12.70;;
25111;SDS011;13092;51.996;4.458;2022-09-23T09:28:32;14.65;;;11.98;;
25111;SDS011;13092;51.996;4.458;2022-09-23T09:31:20;17.20;;;12.10;;
25111;SDS011;13092;51.996;4.458;2022-09-23T09:33:52;15.88;;;11.43;;
25111;SDS011;13092;51.996;4.458;2022-09-23T09:36:35;17.35;;;12.40;;
25111;SDS011;13092;51.996;4.458;2022-09-23T09:39:07;15.70;;;11.18;;
25111;SDS011;13092;51.996;4.458;2022-09-23T09:41:37;13.05;;;10.55;;
25111;SDS011;13092;51.996;4.458;2022-09-23T09:44:08;14.27;;;12.82;;
25111;SDS011;13092;51.996;4.458;2022-09-23T09:46:57;15.48;;;10.85;;
25111;SDS011;13092;51.996;4.458;2022-09-23T09:49:40;13.25;;;10.65;;
25111;SDS011;13092;51.996;4.458;2022-09-23T09:52:21;16.30;;;10.93;;
25111;SDS011;13092;51.996;4.458;2022-09-23T09:54:51;13.32;;;10.32;;
25111;SDS011;13092;51.996;4.458;2022-09-23T09:57:27;15.88;;;10.38;;
25111;SDS011;13092;51.996;4.458;2022-09-23T10:00:15;14.70;;;9.93;;
25111;SDS011;13092;51.996;4.458;2022-09-23T10:03:02;19.35;;;10.48;;
25111;SDS011;13092;51.996;4.458;2022-09-23T10:05:46;16.33;;;9.82;;
25111;SDS011;13092;51.996;4.458;2022-09-23T10:08:20;13.00;;;10.27;;
25111;SDS011;13092;51.996;4.458;2022-09-23T10:10:51;13.18;;;10.73;;
25111;SDS011;13092;51.996;4.458;2022-09-23T10:13:26;15.48;;;10.05;;
25111;SDS011;13092;51.996;4.458;2022-09-23T10:15:55;17.02;;;10.50;;
25111;SDS011;13092;51.996;4.458;2022-09-23T10:18:28;15.40;;;10.10;;
25111;SDS011;13092;51.996;4.458;2022-09-23T10:21:05;15.82;;;11.60;;
25111;SDS011;13092;51.996;4.458;2022-09-23T10:23:37;23.25;;;10.18;;
25111;SDS011;13092;51.996;4.458;2022-09-23T10:26:09;17.58;;;10.82;;
25111;SDS011;13092;51.996;4.458;2022-09-23T10:28:39;17.08;;;11.05;;
25111;SDS011;13092;51.996;4.458;2022-09-23T10:31:11;17.17;;;10.60;;
25111;SDS011;13092;51.996;4.458;2022-09-23T10:33:45;13.95;;;10.13;;
25111;SDS011;13092;51.996;4.458;2022-09-23T10:36:15;13.05;;;8.93;;
25111;SDS011;13092;51.996;4.458;2022-09-23T10:38:44;14.95;;;9.90;;
25111;SDS011;13092;51.996;4.458;2022-09-23T10:41:22;15.48;;;9.38;;
25111;SDS011;13092;51.996;4.458;2022-09-23T10:44:28;13.32;;;9.18;;
25111;SDS011;13092;51.996;4.458;2022-09-23T10:47:35;12.50;;;9.68;;
25111;SDS011;13092;51.996;4.458;2022-09-23T10:50:16;12.95;;;9.07;;
25111;SDS011;13092;51.996;4.458;2022-09-23T10:53:01;12.93;;;8.88;;
25111;SDS011;13092;51.996;4.458;2022-09-23T10:55:42;14.73;;;9.30;;
25111;SDS011;13092;51.996;4.458;2022-09-23T10:58:23;13.30;;;8.73;;
25111;SDS011;13092;51.996;4.458;2022-09-23T11:01:13;13.13;;;8.45;;
25111;SDS011;13092;51.996;4.458;2022-09-23T11:03:54;13.55;;;8.55;;
25111;SDS011;13092;51.996;4.458;2022-09-23T11:06:58;12.32;;;7.88;;
25111;SDS011;13092;51.996;4.458;2022-09-23T11:09:43;17.20;;;8.05;;
25111;SDS011;13092;51.996;4.458;2022-09-23T11:12:21;12.73;;;8.18;;
25111;SDS011;13092;51.996;4.458;2022-09-23T11:15:01;16.40;;;8.68;;
25111;SDS011;13092;51.996;4.458;2022-09-23T11:17:43;11.10;;;7.55;;
25111;SDS011;13092;51.996;4.458;2022-09-23T11:20:31;13.02;;;7.63;;
25111;SDS011;13092;51.996;4.458;2022-09-23T11:26:01;13.05;;;7.78;;
25111;SDS011;13092;51.996;4.458;2022-09-23T11:28:44;12.38;;;7.47;;
25111;SDS011;13092;51.996;4.458;2022-09-23T11:31:45;11.40;;;7.13;;
25111;SDS011;13092;51.996;4.458;2022-09-23T11:34:32;18.42;;;8.30;;
25111;SDS011;13092;51.996;4.458;2022-09-23T11:37:23;10.68;;;7.25;;
25111;SDS011;13092;51.996;4.458;2022-09-23T11:39:56;11.77;;;7.70;;
25111;SDS011;13092;51.996;4.458;2022-09-23T11:42:29;13.45;;;7.57;;
25111;SDS011;13092;51.996;4.458;2022-09-23T11:45:03;17.38;;;7.43;;
25111;SDS011;13092;51.996;4.458;2022-09-23T11:47:35;14.73;;;7.60;;
25111;SDS011;13092;51.996;4.458;2022-09-23T11:50:10;10.95;;;7.22;;
25111;SDS011;13092;51.996;4.458;2022-09-23T11:52:46;13.68;;;7.28;;
25111;SDS011;13092;51.996;4.458;2022-09-23T11:55:25;10.30;;;7.18;;
25111;SDS011;13092;51.996;4.458;2022-09-23T11:57:58;11.25;;;7.60;;
25111;SDS011;13092;51.996;4.458;2022-09-23T12:00:45;12.27;;;7.43;;
25111;SDS011;13092;51.996;4.458;2022-09-23T12:03:30;11.20;;;6.38;;
25111;SDS011;13092;51.996;4.458;2022-09-23T12:06:11;12.32;;;6.47;;
25111;SDS011;13092;51.996;4.458;2022-09-23T12:08:43;12.77;;;6.03;;
25111;SDS011;13092;51.996;4.458;2022-09-23T12:11:17;12.25;;;6.88;;
25111;SDS011;13092;51.996;4.458;2022-09-23T12:13:52;12.85;;;6.05;;
25111;SDS011;13092;51.996;4.458;2022-09-23T12:16:32;9.00;;;5.60;;
25111;SDS011;13092;51.996;4.458;2022-09-23T12:19:31;13.55;;;5.88;;
25111;SDS011;13092;51.996;4.458;2022-09-23T12:22:14;14.20;;;6.03;;
25111;SDS011;13092;51.996;4.458;2022-09-23T12:24:55;22.98;;;6.20;;
25111;SDS011;13092;51.996;4.458;2022-09-23T12:27:29;12.25;;;5.90;;
25111;SDS011;13092;51.996;4.458;2022-09-23T12:30:03;10.65;;;5.95;;
25111;SDS011;13092;51.996;4.458;2022-09-23T12:32:33;9.00;;;5.90;;
25111;SDS011;13092;51.996;4.458;2022-09-23T12:35:01;10.75;;;6.45;;
25111;SDS011;13092;51.996;4.458;2022-09-23T12:37:31;12.38;;;6.70;;
25111;SDS011;13092;51.996;4.458;2022-09-23T12:40:04;12.45;;;7.15;;
25111;SDS011;13092;51.996;4.458;2022-09-23T12:42:40;13.63;;;7.55;;
25111;SDS011;13092;51.996;4.458;2022-09-23T12:48:03;11.05;;;7.20;;
25111;SDS011;13092;51.996;4.458;2022-09-23T12:50:52;10.38;;;7.00;;
25111;SDS011;13092;51.996;4.458;2022-09-23T12:56:22;13.90;;;7.97;;
25111;SDS011;13092;51.996;4.458;2022-09-23T13:01:51;15.20;;;8.27;;
25111;SDS011;13092;51.996;4.458;2022-09-23T13:04:33;14.60;;;8.35;;
25111;SDS011;13092;51.996;4.458;2022-09-23T13:07:26;14.07;;;8.13;;
25111;SDS011;13092;51.996;4.458;2022-09-23T13:10:02;12.40;;;7.97;;
25111;SDS011;13092;51.996;4.458;2022-09-23T13:12:36;13.43;;;8.52;;
25111;SDS011;13092;51.996;4.458;2022-09-23T13:15:13;13.82;;;9.32;;
25111;SDS011;13092;51.996;4.458;2022-09-23T13:17:53;13.48;;;8.43;;
25111;SDS011;13092;51.996;4.458;2022-09-23T13:20:52;15.48;;;8.50;;
25111;SDS011;13092;51.996;4.458;2022-09-23T13:23:22;13.10;;;8.85;;
25111;SDS011;13092;51.996;4.458;2022-09-23T13:25:53;15.77;;;8.48;;
25111;SDS011;13092;51.996;4.458;2022-09-23T13:28:25;13.02;;;7.90;;
25111;SDS011;13092;51.996;4.458;2022-09-23T13:30:56;11.93;;;7.10;;
25111;SDS011;13092;51.996;4.458;2022-09-23T13:33:30;10.05;;;7.35;;
25111;SDS011;13092;51.996;4.458;2022-09-23T13:36:09;11.93;;;7.20;;
25111;SDS011;13092;51.996;4.458;2022-09-23T13:38:39;14.70;;;7.70;;
25111;SDS011;13092;51.996;4.458;2022-09-23T13:41:09;18.52;;;7.95;;
25111;SDS011;13092;51.996;4.458;2022-09-23T13:43:41;10.57;;;7.90;;
25111;SDS011;13092;51.996;4.458;2022-09-23T13:46:15;15.13;;;8.60;;
25111;SDS011;13092;51.996;4.458;2022-09-23T13:48:46;15.20;;;7.95;;
25111;SDS011;13092;51.996;4.458;2022-09-23T13:51:18;15.65;;;8.35;;
25111;SDS011;13092;51.996;4.458;2022-09-23T13:53:50;11.00;;;8.65;;
25111;SDS011;13092;51.996;4.458;2022-09-23T13:56:21;14.32;;;9.43;;
25111;SDS011;13092;51.996;4.458;2022-09-23T13:58:50;13.50;;;8.95;;
25111;SDS011;13092;51.996;4.458;2022-09-23T14:01:21;17.88;;;10.68;;
25111;SDS011;13092;51.996;4.458;2022-09-23T14:03:57;13.98;;;10.48;;
25111;SDS011;13092;51.996;4.458;2022-09-23T14:06:28;16.00;;;11.18;;
25111;SDS011;13092;51.996;4.458;2022-09-23T14:08:58;15.75;;;12.60;;
25111;SDS011;13092;51.996;4.458;2022-09-23T14:11:28;16.10;;;13.38;;
25111;SDS011;13092;51.996;4.458;2022-09-23T14:13:59;17.88;;;13.95;;
25111;SDS011;13092;51.996;4.458;2022-09-23T14:16:36;17.60;;;13.45;;
25111;SDS011;13092;51.996;4.458;2022-09-23T14:19:08;17.73;;;13.50;;
25111;SDS011;13092;51.996;4.458;2022-09-23T14:21:46;15.93;;;12.52;;
25111;SDS011;13092;51.996;4.458;2022-09-23T14:24:16;18.92;;;12.40;;
25111;SDS011;13092;51.996;4.458;2022-09-23T14:26:46;20.55;;;13.80;;
25111;SDS011;13092;51.996;4.458;2022-09-23T14:29:16;15.63;;;13.40;;
25111;SDS011;13092;51.996;4.458;2022-09-23T14:31:50;18.25;;;15.02;;
25111;SDS011;13092;51.996;4.458;2022-09-23T14:37:12;19.20;;;15.20;;
25111;SDS011;13092;51.996;4.458;2022-09-23T14:40:07;16.55;;;14.85;;
25111;SDS011;13092;51.996;4.458;2022-09-23T14:42:39;20.65;;;18.65;;
25111;SDS011;13092;51.996;4.458;2022-09-23T14:45:11;18.80;;;16.85;;
25111;SDS011;13092;51.996;4.458;2022-09-23T14:47:44;17.42;;;15.73;;
25111;SDS011;13092;51.996;4.458;2022-09-23T14:50:18;16.73;;;14.95;;
25111;SDS011;13092;51.996;4.458;2022-09-23T14:56:07;18.67;;;16.52;;
25111;SDS011;13092;51.996;4.458;2022-09-23T14:58:42;18.88;;;17.05;;
25111;SDS011;13092;51.996;4.458;2022-09-23T15:06:58;22.90;;;20.75;;
25111;SDS011;13092;51.996;4.458;2022-09-23T15:09:30;28.75;;;26.23;;
25111;SDS011;13092;51.996;4.458;2022-09-23T15:12:03;30.17;;;27.67;;
25111;SDS011;13092;51.996;4.458;2022-09-23T15:14:34;31.45;;;28.65;;
25111;SDS011;13092;51.996;4.458;2022-09-23T15:17:14;32.15;;;29.45;;
25111;SDS011;13092;51.996;4.458;2022-09-23T15:19:52;36.53;;;33.33;;
25111;SDS011;13092;51.996;4.458;2022-09-23T15:22:23;35.08;;;32.13;;
25111;SDS011;13092;51.996;4.458;2022-09-23T15:24:51;42.72;;;39.10;;
25111;SDS011;13092;51.996;4.458;2022-09-23T15:27:26;51.60;;;47.78;;